Terminal Aerodrome Forecast
Issued by NWS

Home | Current Version | Previous Version | Text Only | Print | Product List | Glossary On
Versions: 1 2 3 4 5 6 7 8 9 10 11 12 13 14
000
FTUS42 KMLB 241700
TAFTIX
TAF
KTIX 241736Z 2418/2518 13009KT P6SM SCT035 SCT250
     FM242000 13007KT P6SM VCTS SCT035CB BKN050
      TEMPO 2420/2423 5SM SHRA BKN030
     FM250000 VRB04KT P6SM FEW030 SCT250
     FM250600 23003KT P6SM FEW020
     FM251400 23007KT P6SM SCT025 SCT050=

USA.gov is the U.S. government's official web portal to all federal, state and local government web resources and services.